Time;durP1;ratioP1;P1;durP2;ratioP2;P2;SDS_P1;SDS_P2;PMS_P1;PMS_P2;Temp;Humidity;BMP_temperature;BMP_pressure;BME280_temperature;BME280_humidity;BME280_pressure;Samples;Min_cycle;Max_cycle;Signal;HPM_P1;HPM_P2
2023/01/20 00:01:22;;;;;;;9.68;5.63;;;;;;;;;;5032357;28;20589;-66
2023/01/20 00:03:49;;;;;;;8.73;6.40;;;;;;;;;;5031544;28;20492;-66
2023/01/20 00:06:15;;;;;;;8.85;5.88;;;;;;;;;;5033324;28;20049;-66
2023/01/20 00:08:41;;;;;;;9.63;6.55;;;;;;;;;;5029489;28;20041;-66
2023/01/20 00:11:08;;;;;;;10.38;6.55;;;;;;;;;;5031411;28;20045;-66
2023/01/20 00:13:35;;;;;;;11.32;6.65;;;;;;;;;;5033032;28;20411;-66
2023/01/20 00:16:02;;;;;;;9.35;6.95;;;;;;;;;;5031907;28;20077;-66
2023/01/20 00:18:28;;;;;;;10.82;6.78;;;;;;;;;;5031428;28;20551;-66
2023/01/20 00:20:54;;;;;;;11.55;6.18;;;;;;;;;;5031476;28;20458;-66
2023/01/20 00:23:21;;;;;;;10.57;6.57;;;;;;;;;;5035601;28;20041;-66
2023/01/20 00:25:47;;;;;;;11.20;6.80;;;;;;;;;;5030620;28;20037;-66
2023/01/20 00:28:13;;;;;;;11.52;6.25;;;;;;;;;;5032554;28;20041;-66
2023/01/20 00:30:40;;;;;;;13.10;6.10;;;;;;;;;;5030287;28;20495;-66
2023/01/20 00:33:06;;;;;;;10.05;5.85;;;;;;;;;;5031685;28;20403;-66
2023/01/20 00:35:32;;;;;;;9.75;5.68;;;;;;;;;;5031687;28;20044;-66
2023/01/20 00:37:58;;;;;;;9.63;6.63;;;;;;;;;;5030820;28;20076;-66
2023/01/20 00:40:24;;;;;;;9.75;6.38;;;;;;;;;;5029776;28;20046;-66
2023/01/20 00:42:50;;;;;;;10.88;6.68;;;;;;;;;;5032585;28;20102;-66
2023/01/20 00:45:16;;;;;;;9.73;6.63;;;;;;;;;;5030528;28;20124;-66
2023/01/20 00:47:42;;;;;;;13.75;6.85;;;;;;;;;;5031048;28;20124;-66
2023/01/20 00:50:08;;;;;;;11.10;7.10;;;;;;;;;;5030415;28;20505;-66
2023/01/20 00:52:34;;;;;;;10.57;6.70;;;;;;;;;;5031171;28;20086;-67
2023/01/20 00:55:00;;;;;;;10.45;6.90;;;;;;;;;;5030970;28;20033;-67
2023/01/20 00:57:26;;;;;;;10.73;7.28;;;;;;;;;;5029719;28;20041;-67
2023/01/20 00:59:52;;;;;;;14.48;8.20;;;;;;;;;;5030416;28;20048;-67
2023/01/20 01:02:18;;;;;;;13.00;7.72;;;;;;;;;;5023985;28;20038;-67
2023/01/20 01:04:44;;;;;;;9.88;7.25;;;;;;;;;;5008594;28;20415;-67
2023/01/20 01:07:10;;;;;;;13.15;7.50;;;;;;;;;;5028812;28;20044;-67
2023/01/20 01:09:36;;;;;;;12.75;7.50;;;;;;;;;;5029399;28;20096;-66
2023/01/20 01:12:02;;;;;;;13.85;8.80;;;;;;;;;;5027436;28;20042;-67
2023/01/20 01:14:30;;;;;;;13.13;8.15;;;;;;;;;;5036945;28;20514;-67
2023/01/20 01:16:56;;;;;;;13.77;8.55;;;;;;;;;;5035400;28;20045;-67
2023/01/20 01:19:22;;;;;;;14.13;8.85;;;;;;;;;;5030331;28;20395;-67
2023/01/20 01:21:48;;;;;;;10.48;7.53;;;;;;;;;;5031488;28;20029;-67
2023/01/20 01:24:14;;;;;;;15.15;8.88;;;;;;;;;;5030513;28;20041;-67
2023/01/20 01:26:40;;;;;;;13.40;8.00;;;;;;;;;;5031456;28;20083;-67
2023/01/20 01:29:06;;;;;;;12.77;8.15;;;;;;;;;;5029858;28;20075;-67
2023/01/20 01:31:32;;;;;;;15.95;8.77;;;;;;;;;;5031889;28;20418;-67
2023/01/20 01:33:58;;;;;;;14.60;8.93;;;;;;;;;;5039809;28;20037;-67
2023/01/20 01:36:24;;;;;;;13.80;9.18;;;;;;;;;;5033331;28;20033;-67
2023/01/20 01:38:50;;;;;;;16.75;9.65;;;;;;;;;;5027313;28;20033;-67
2023/01/20 01:41:17;;;;;;;17.25;9.93;;;;;;;;;;5031422;28;20037;-67
2023/01/20 01:44:01;;;;;;;14.13;9.18;;;;;;;;;;5038122;28;20135;-67
2023/01/20 01:46:27;;;;;;;15.45;9.30;;;;;;;;;;5025358;28;20124;-67
2023/01/20 01:48:53;;;;;;;12.52;9.07;;;;;;;;;;5029804;28;20133;-67
2023/01/20 01:51:25;;;;;;;15.85;9.77;;;;;;;;;;5026408;28;20039;-67
2023/01/20 01:53:56;;;;;;;12.75;8.50;;;;;;;;;;5030003;28;20056;-67
2023/01/20 01:56:23;;;;;;;14.23;9.05;;;;;;;;;;5030089;28;20111;-67
2023/01/20 01:58:51;;;;;;;16.85;9.50;;;;;;;;;;5028244;28;20547;-67
2023/01/20 02:01:17;;;;;;;13.73;9.38;;;;;;;;;;5027866;28;20061;-67
2023/01/20 02:04:02;;;;;;;13.90;8.38;;;;;;;;;;5028802;28;20044;-67
2023/01/20 02:06:31;;;;;;;12.43;8.13;;;;;;;;;;5026877;28;20033;-67
2023/01/20 02:08:57;;;;;;;14.38;9.18;;;;;;;;;;5028762;28;20453;-67
2023/01/20 02:11:23;;;;;;;14.70;8.85;;;;;;;;;;5030689;28;20045;-67
2023/01/20 02:13:49;;;;;;;11.82;8.38;;;;;;;;;;5033494;28;20073;-67
2023/01/20 02:16:18;;;;;;;11.98;7.63;;;;;;;;;;5027077;28;20525;-67
2023/01/20 02:18:50;;;;;;;13.93;8.50;;;;;;;;;;5031481;28;20100;-67
2023/01/20 02:21:28;;;;;;;16.90;8.55;;;;;;;;;;5029243;28;20086;-67
2023/01/20 02:24:02;;;;;;;14.65;8.77;;;;;;;;;;5011656;28;20091;-67
2023/01/20 02:26:28;;;;;;;15.73;8.75;;;;;;;;;;5028568;28;20049;-67
2023/01/20 02:29:12;;;;;;;14.68;9.02;;;;;;;;;;5028049;28;20049;-67
2023/01/20 02:31:45;;;;;;;13.63;8.77;;;;;;;;;;5025707;28;20069;-67
2023/01/20 02:34:37;;;;;;;16.58;9.52;;;;;;;;;;5015201;28;20045;-68
2023/01/20 02:37:11;;;;;;;15.30;9.32;;;;;;;;;;5024180;28;20049;-67
2023/01/20 02:40:00;;;;;;;17.02;9.45;;;;;;;;;;5028335;28;20502;-67
2023/01/20 02:42:40;;;;;;;13.88;8.20;;;;;;;;;;5014309;28;20049;-67
2023/01/20 02:45:05;;;;;;;16.08;8.93;;;;;;;;;;5022788;28;20042;-67
2023/01/20 02:47:37;;;;;;;17.30;9.35;;;;;;;;;;5029821;28;20111;-67
2023/01/20 02:50:08;;;;;;;17.55;9.30;;;;;;;;;;5025792;28;20037;-67
2023/01/20 02:52:36;;;;;;;16.70;9.88;;;;;;;;;;5027226;28;20574;-67
2023/01/20 02:55:05;;;;;;;18.15;10.57;;;;;;;;;;5029680;28;20132;-67
2023/01/20 02:57:35;;;;;;;16.80;9.15;;;;;;;;;;5067193;22;20529;-63
2023/01/20 03:00:07;;;;;;;17.65;10.23;;;;;;;;;;5066827;28;20064;-63
2023/01/20 03:02:34;;;;;;;16.15;10.68;;;;;;;;;;5065663;28;20139;-63
2023/01/20 03:05:05;;;;;;;16.75;8.93;;;;;;;;;;5068006;28;20043;-63
2023/01/20 03:07:32;;;;;;;18.05;10.13;;;;;;;;;;5068033;28;20051;-63
2023/01/20 03:10:00;;;;;;;17.45;10.32;;;;;;;;;;5071011;28;20072;-63
2023/01/20 03:12:29;;;;;;;14.57;8.80;;;;;;;;;;5069560;28;20040;-63
2023/01/20 03:14:55;;;;;;;15.18;9.65;;;;;;;;;;5070389;28;20044;-63
2023/01/20 03:17:21;;;;;;;16.58;10.05;;;;;;;;;;5069377;28;20135;-63
2023/01/20 03:19:48;;;;;;;16.98;10.10;;;;;;;;;;5069051;28;20541;-63
2023/01/20 03:22:14;;;;;;;20.88;10.35;;;;;;;;;;5067086;28;20033;-63
2023/01/20 03:24:41;;;;;;;15.57;9.20;;;;;;;;;;5070306;28;20397;-63
2023/01/20 03:27:07;;;;;;;16.67;9.77;;;;;;;;;;5067727;28;20514;-63
2023/01/20 03:29:33;;;;;;;18.67;10.10;;;;;;;;;;5069515;28;20036;-63
2023/01/20 03:32:01;;;;;;;16.40;9.80;;;;;;;;;;5068716;28;20040;-62
2023/01/20 03:34:28;;;;;;;16.38;10.02;;;;;;;;;;5066281;28;20036;-63
2023/01/20 03:36:55;;;;;;;18.05;10.20;;;;;;;;;;5068021;28;20390;-63
2023/01/20 03:39:22;;;;;;;16.17;10.30;;;;;;;;;;5072372;28;20106;-63
2023/01/20 03:41:54;;;;;;;17.15;9.63;;;;;;;;;;5073307;28;20048;-63
2023/01/20 03:44:33;;;;;;;18.75;9.85;;;;;;;;;;5069080;28;20040;-63
2023/01/20 03:47:15;;;;;;;16.65;10.02;;;;;;;;;;5069862;28;20032;-63
2023/01/20 03:49:41;;;;;;;15.95;9.48;;;;;;;;;;5072436;28;20037;-63
2023/01/20 03:52:11;;;;;;;17.98;9.55;;;;;;;;;;5070678;28;20047;-63
2023/01/20 03:54:43;;;;;;;16.90;9.68;;;;;;;;;;5071862;28;20035;-63
2023/01/20 03:57:13;;;;;;;16.58;9.43;;;;;;;;;;5070360;28;20028;-63
2023/01/20 03:59:41;;;;;;;16.17;7.75;;;;;;;;;;5071832;28;20035;-63
2023/01/20 04:02:08;;;;;;;16.52;9.07;;;;;;;;;;5069130;28;20040;-63
2023/01/20 04:04:36;;;;;;;16.67;9.23;;;;;;;;;;5070380;28;20036;-63
2023/01/20 04:07:03;;;;;;;17.23;9.88;;;;;;;;;;5072253;28;20036;-63
2023/01/20 04:09:31;;;;;;;13.45;7.50;;;;;;;;;;5071510;28;20449;-63
2023/01/20 04:11:58;;;;;;;21.23;9.68;;;;;;;;;;5073659;28;20037;-63
2023/01/20 04:14:24;;;;;;;15.82;9.32;;;;;;;;;;5071924;28;20115;-63
2023/01/20 04:16:52;;;;;;;15.77;9.27;;;;;;;;;;5071107;28;20036;-63
2023/01/20 04:19:18;;;;;;;18.10;8.93;;;;;;;;;;5070344;28;20140;-62
2023/01/20 04:21:48;;;;;;;15.27;8.65;;;;;;;;;;5070949;28;20068;-62
2023/01/20 04:24:23;;;;;;;17.77;9.85;;;;;;;;;;5073031;28;20452;-62
2023/01/20 04:26:49;;;;;;;17.27;9.05;;;;;;;;;;5067853;28;20470;-63
2023/01/20 04:29:15;;;;;;;15.02;9.02;;;;;;;;;;5071296;28;20116;-63
2023/01/20 04:31:41;;;;;;;16.50;9.68;;;;;;;;;;5071273;28;20074;-63
2023/01/20 04:34:07;;;;;;;19.70;10.15;;;;;;;;;;5070973;28;20040;-63
2023/01/20 04:36:33;;;;;;;17.40;9.45;;;;;;;;;;5070898;28;20039;-62
2023/01/20 04:38:59;;;;;;;15.95;8.73;;;;;;;;;;5073486;28;20040;-62
2023/01/20 04:41:25;;;;;;;17.52;9.50;;;;;;;;;;5070847;28;20453;-62
2023/01/20 04:43:51;;;;;;;15.82;7.72;;;;;;;;;;5068333;28;20055;-62
2023/01/20 04:46:17;;;;;;;22.73;9.52;;;;;;;;;;5068309;28;20040;-62
2023/01/20 04:48:45;;;;;;;16.33;9.40;;;;;;;;;;5066756;28;20044;-63
2023/01/20 04:51:11;;;;;;;18.25;9.50;;;;;;;;;;5071751;28;20044;-63
2023/01/20 04:53:37;;;;;;;18.77;10.02;;;;;;;;;;5070802;28;20067;-63
2023/01/20 04:56:03;;;;;;;19.23;9.95;;;;;;;;;;5065625;28;20492;-62
2023/01/20 04:58:29;;;;;;;18.65;9.32;;;;;;;;;;5071646;28;20033;-62
2023/01/20 05:00:55;;;;;;;17.25;9.95;;;;;;;;;;5069738;28;20465;-62
2023/01/20 05:03:21;;;;;;;21.30;11.45;;;;;;;;;;5068031;28;20096;-63
2023/01/20 05:05:54;;;;;;;19.88;10.38;;;;;;;;;;5062201;28;20044;-63
2023/01/20 05:08:20;;;;;;;20.58;10.80;;;;;;;;;;5066843;28;20039;-62
2023/01/20 05:10:46;;;;;;;20.08;9.50;;;;;;;;;;5069232;28;20032;-63
2023/01/20 05:13:12;;;;;;;21.27;11.07;;;;;;;;;;5069920;28;20486;-63
2023/01/20 05:15:39;;;;;;;21.83;11.25;;;;;;;;;;5069005;28;20110;-63
2023/01/20 05:18:05;;;;;;;23.92;11.48;;;;;;;;;;5071901;28;20394;-63
2023/01/20 05:20:31;;;;;;;23.95;12.32;;;;;;;;;;5068244;28;20047;-63
2023/01/20 05:22:57;;;;;;;22.30;11.93;;;;;;;;;;5070382;28;20055;-63
2023/01/20 05:25:23;;;;;;;23.05;11.73;;;;;;;;;;5062087;28;20541;-62
2023/01/20 05:27:49;;;;;;;24.15;12.02;;;;;;;;;;5069700;28;20179;-63
2023/01/20 05:30:15;;;;;;;26.10;12.13;;;;;;;;;;5071457;28;20044;-62
2023/01/20 05:32:41;;;;;;;26.50;12.82;;;;;;;;;;5072352;28;20044;-62
2023/01/20 05:35:08;;;;;;;22.13;11.75;;;;;;;;;;5070364;28;20108;-63
2023/01/20 05:37:34;;;;;;;24.90;12.43;;;;;;;;;;5067427;28;20036;-63
2023/01/20 05:40:00;;;;;;;27.00;12.95;;;;;;;;;;5070709;28;20064;-63
2023/01/20 05:42:26;;;;;;;22.52;10.95;;;;;;;;;;5069079;28;20072;-63
2023/01/20 05:44:52;;;;;;;23.30;11.07;;;;;;;;;;5066893;28;20402;-63
2023/01/20 05:47:18;;;;;;;25.05;12.80;;;;;;;;;;5069129;28;20044;-63
2023/01/20 05:49:44;;;;;;;28.98;13.88;;;;;;;;;;5069717;28;20032;-63
2023/01/20 05:52:10;;;;;;;29.77;14.05;;;;;;;;;;5070052;28;20036;-62
2023/01/20 05:54:36;;;;;;;25.33;12.98;;;;;;;;;;5068735;28;20036;-62
2023/01/20 05:57:04;;;;;;;27.08;13.73;;;;;;;;;;5066409;28;20033;-63
2023/01/20 05:59:30;;;;;;;32.42;13.63;;;;;;;;;;5070393;28;20032;-63
2023/01/20 06:01:56;;;;;;;27.75;13.90;;;;;;;;;;5070449;28;20094;-63
2023/01/20 06:04:22;;;;;;;29.15;13.63;;;;;;;;;;5068685;28;20390;-62
2023/01/20 06:06:48;;;;;;;31.48;13.95;;;;;;;;;;5066816;28;20090;-63
2023/01/20 06:09:14;;;;;;;29.42;13.88;;;;;;;;;;5070775;28;20442;-63
2023/01/20 06:11:40;;;;;;;29.13;14.05;;;;;;;;;;5070099;28;20067;-63
2023/01/20 06:14:06;;;;;;;29.00;14.75;;;;;;;;;;5070070;28;20139;-63
2023/01/20 06:16:32;;;;;;;31.73;15.45;;;;;;;;;;5068249;28;20127;-63
2023/01/20 06:18:58;;;;;;;31.88;14.82;;;;;;;;;;5071380;28;20044;-62
2023/01/20 06:21:24;;;;;;;29.33;14.30;;;;;;;;;;5069492;28;20520;-63
2023/01/20 06:23:50;;;;;;;32.15;15.60;;;;;;;;;;5069156;28;20093;-63
2023/01/20 06:26:16;;;;;;;31.92;15.05;;;;;;;;;;5062240;28;20069;-63
2023/01/20 06:28:42;;;;;;;33.85;16.10;;;;;;;;;;5068580;28;20059;-63
2023/01/20 06:31:10;;;;;;;34.35;16.85;;;;;;;;;;5069607;28;20494;-63
2023/01/20 06:33:36;;;;;;;35.72;17.20;;;;;;;;;;5068752;28;20682;-63
2023/01/20 06:36:03;;;;;;;33.78;16.30;;;;;;;;;;5066973;28;20055;-63
2023/01/20 06:38:30;;;;;;;33.97;16.48;;;;;;;;;;5066248;28;20039;-63
2023/01/20 06:41:03;;;;;;;37.30;17.15;;;;;;;;;;5068793;28;20043;-63
2023/01/20 06:43:31;;;;;;;36.45;15.88;;;;;;;;;;5067676;28;20526;-63
2023/01/20 06:46:04;;;;;;;38.80;16.98;;;;;;;;;;5069759;28;20048;-63
2023/01/20 06:48:30;;;;;;;38.67;17.77;;;;;;;;;;5069420;28;20528;-63
2023/01/20 06:51:00;;;;;;;39.28;17.98;;;;;;;;;;5071447;28;20037;-63
2023/01/20 06:53:26;;;;;;;36.63;17.15;;;;;;;;;;5067705;28;20522;-63
2023/01/20 06:55:55;;;;;;;40.10;16.40;;;;;;;;;;5067433;28;20102;-62
2023/01/20 06:58:22;;;;;;;36.28;17.30;;;;;;;;;;5066661;28;20072;-63
2023/01/20 07:00:48;;;;;;;40.38;18.48;;;;;;;;;;5066718;28;20040;-63
2023/01/20 07:03:14;;;;;;;39.35;17.02;;;;;;;;;;5069358;28;20073;-63
2023/01/20 07:05:40;;;;;;;39.78;17.42;;;;;;;;;;5066705;28;20040;-63
2023/01/20 07:08:06;;;;;;;38.08;17.92;;;;;;;;;;5066702;28;20036;-63
2023/01/20 07:10:32;;;;;;;36.65;16.95;;;;;;;;;;5071981;28;20040;-63
2023/01/20 07:12:58;;;;;;;37.88;18.00;;;;;;;;;;5070833;28;20403;-63
2023/01/20 07:15:25;;;;;;;38.78;17.90;;;;;;;;;;5072458;28;20101;-63
2023/01/20 07:17:51;;;;;;;44.20;19.13;;;;;;;;;;5071138;28;20032;-63
2023/01/20 07:20:17;;;;;;;39.40;17.67;;;;;;;;;;5068103;28;20521;-63
2023/01/20 07:22:43;;;;;;;36.80;17.08;;;;;;;;;;5071479;28;20048;-63
2023/01/20 07:25:09;;;;;;;40.92;17.92;;;;;;;;;;5066957;28;20038;-63
2023/01/20 07:27:35;;;;;;;45.03;20.10;;;;;;;;;;5075313;28;20039;-63
2023/01/20 07:30:01;;;;;;;44.67;18.70;;;;;;;;;;5070931;28;20529;-63
2023/01/20 07:32:30;;;;;;;39.15;17.65;;;;;;;;;;5074176;28;20102;-63
2023/01/20 07:34:56;;;;;;;39.92;17.98;;;;;;;;;;5067320;28;20053;-63
2023/01/20 07:37:22;;;;;;;32.67;15.68;;;;;;;;;;5073160;28;20398;-63
2023/01/20 07:39:48;;;;;;;39.28;17.15;;;;;;;;;;5073100;28;20036;-63
2023/01/20 07:42:14;;;;;;;38.38;17.63;;;;;;;;;;5072414;28;20043;-63
2023/01/20 07:44:40;;;;;;;34.45;16.88;;;;;;;;;;5073319;28;20036;-63
2023/01/20 07:47:06;;;;;;;39.60;16.83;;;;;;;;;;5073694;28;20127;-63
2023/01/20 07:49:32;;;;;;;41.95;18.35;;;;;;;;;;5073278;28;20046;-63
2023/01/20 07:51:58;;;;;;;42.78;18.25;;;;;;;;;;5074173;28;20383;-63
2023/01/20 07:54:24;;;;;;;41.28;17.85;;;;;;;;;;5068098;28;20058;-63
2023/01/20 07:56:50;;;;;;;34.70;16.63;;;;;;;;;;5070895;28;20040;-63
2023/01/20 07:59:16;;;;;;;38.22;18.50;;;;;;;;;;5072576;28;20036;-63
2023/01/20 08:01:43;;;;;;;42.65;17.17;;;;;;;;;;5069034;28;20063;-64
2023/01/20 08:04:09;;;;;;;42.10;18.23;;;;;;;;;;5071539;28;20448;-63
2023/01/20 08:06:35;;;;;;;35.00;15.88;;;;;;;;;;5071420;28;20052;-64
2023/01/20 08:09:01;;;;;;;36.38;17.13;;;;;;;;;;5073194;28;20036;-63
2023/01/20 08:11:27;;;;;;;35.28;15.32;;;;;;;;;;5065507;28;20037;-63
2023/01/20 08:13:53;;;;;;;39.40;17.23;;;;;;;;;;5071334;28;20063;-63
2023/01/20 08:16:19;;;;;;;41.42;18.45;;;;;;;;;;5069649;28;20036;-63
2023/01/20 08:18:46;;;;;;;41.72;18.17;;;;;;;;;;5071026;28;20037;-63
2023/01/20 08:21:19;;;;;;;42.63;17.85;;;;;;;;;;5073177;28;20124;-63
2023/01/20 08:23:45;;;;;;;37.53;16.58;;;;;;;;;;5072623;28;20068;-63
2023/01/20 08:26:11;;;;;;;38.83;17.45;;;;;;;;;;5068190;28;20044;-63
2023/01/20 08:28:37;;;;;;;39.13;18.00;;;;;;;;;;5072320;28;20033;-63
2023/01/20 08:31:08;;;;;;;37.67;17.40;;;;;;;;;;5072377;28;20036;-63
2023/01/20 08:33:34;;;;;;;44.58;18.80;;;;;;;;;;5072468;28;20079;-63
2023/01/20 08:36:07;;;;;;;40.35;17.42;;;;;;;;;;5071330;28;20044;-63
2023/01/20 08:38:34;;;;;;;43.13;18.83;;;;;;;;;;5070662;28;20041;-63
2023/01/20 08:41:00;;;;;;;38.20;18.75;;;;;;;;;;5070090;28;20567;-62
2023/01/20 08:43:26;;;;;;;45.47;18.23;;;;;;;;;;5071024;28;20040;-62
2023/01/20 08:45:59;;;;;;;46.10;18.10;;;;;;;;;;5067881;28;20041;-62
2023/01/20 08:48:25;;;;;;;45.97;19.38;;;;;;;;;;5067599;28;20036;-62
2023/01/20 08:50:51;;;;;;;43.97;19.70;;;;;;;;;;5066197;28;20098;-62
2023/01/20 08:53:17;;;;;;;44.83;19.83;;;;;;;;;;5067109;28;20502;-62
2023/01/20 08:55:43;;;;;;;44.53;19.80;;;;;;;;;;5065196;28;20514;-65
2023/01/20 08:58:09;;;;;;;41.60;18.63;;;;;;;;;;5085158;22;20401;-66
2023/01/20 09:00:35;;;;;;;44.90;19.65;;;;;;;;;;5069118;28;20036;-67
2023/01/20 09:03:01;;;;;;;46.08;19.02;;;;;;;;;;5067431;28;20045;-67
2023/01/20 09:05:27;;;;;;;45.53;17.83;;;;;;;;;;5071601;28;20048;-66
2023/01/20 09:07:53;;;;;;;40.83;18.15;;;;;;;;;;5071282;28;20101;-66
2023/01/20 09:10:19;;;;;;;46.08;19.42;;;;;;;;;;5069600;28;20486;-66
2023/01/20 09:12:46;;;;;;;47.30;19.52;;;;;;;;;;5070561;28;20127;-66
2023/01/20 09:15:12;;;;;;;47.05;18.50;;;;;;;;;;5069350;28;20517;-66
2023/01/20 09:17:38;;;;;;;41.30;18.15;;;;;;;;;;5070401;28;20028;-66
2023/01/20 09:20:04;;;;;;;52.90;21.15;;;;;;;;;;5068934;28;20028;-66
2023/01/20 09:22:30;;;;;;;47.13;19.65;;;;;;;;;;5069171;28;20032;-66
2023/01/20 09:24:56;;;;;;;51.83;20.20;;;;;;;;;;5064713;28;20059;-66
2023/01/20 09:27:22;;;;;;;46.45;20.42;;;;;;;;;;5057546;28;20042;-66
2023/01/20 09:29:48;;;;;;;46.17;18.90;;;;;;;;;;5068642;28;20420;-66
2023/01/20 09:32:14;;;;;;;49.70;19.77;;;;;;;;;;5071040;28;20028;-66
2023/01/20 09:34:40;;;;;;;52.30;21.35;;;;;;;;;;5067213;28;20040;-66
2023/01/20 09:45:45;;;;;;;54.20;21.75;;;;;;;;;;5069298;28;20060;-66
2023/01/20 09:53:56;;;;;;;53.90;21.52;;;;;;;;;;5065707;28;20224;-67
2023/01/20 09:56:24;;;;;;;53.53;20.95;;;;;;;;;;5065545;28;20047;-67
2023/01/20 09:58:55;;;;;;;49.80;20.10;;;;;;;;;;5070314;28;20040;-67
2023/01/20 10:01:29;;;;;;;53.13;20.65;;;;;;;;;;5068922;28;20033;-66
2023/01/20 10:04:04;;;;;;;48.88;20.65;;;;;;;;;;5069222;28;20044;-66
2023/01/20 10:06:34;;;;;;;52.65;20.08;;;;;;;;;;5071076;28;20047;-66
2023/01/20 10:09:02;;;;;;;52.72;20.10;;;;;;;;;;5066379;28;20046;-66
2023/01/20 10:11:30;;;;;;;52.40;20.90;;;;;;;;;;5068445;28;20559;-66
2023/01/20 10:14:09;;;;;;;49.38;20.08;;;;;;;;;;5068968;28;20097;-66
2023/01/20 10:16:39;;;;;;;48.17;19.33;;;;;;;;;;5063987;28;20390;-66
2023/01/20 10:19:11;;;;;;;44.20;18.77;;;;;;;;;;5062095;28;20036;-66
2023/01/20 10:21:41;;;;;;;42.53;16.70;;;;;;;;;;5069080;28;20032;-66
2023/01/20 10:24:10;;;;;;;41.80;18.50;;;;;;;;;;5065822;28;20041;-67
2023/01/20 10:26:40;;;;;;;34.95;15.05;;;;;;;;;;5063953;28;20047;-66
2023/01/20 10:29:09;;;;;;;42.55;16.98;;;;;;;;;;5058629;28;20041;-67
2023/01/20 10:31:38;;;;;;;50.38;18.52;;;;;;;;;;5067008;28;20090;-67
2023/01/20 10:34:07;;;;;;;41.92;18.48;;;;;;;;;;5063007;28;20041;-67
2023/01/20 10:36:34;;;;;;;39.25;15.70;;;;;;;;;;5068034;28;20043;-67
2023/01/20 10:39:17;;;;;;;42.38;18.30;;;;;;;;;;5066092;28;20142;-67
2023/01/20 10:41:48;;;;;;;38.92;15.77;;;;;;;;;;5065107;28;20124;-67
2023/01/20 10:44:15;;;;;;;37.38;15.98;;;;;;;;;;5070971;28;20060;-67
2023/01/20 10:46:41;;;;;;;39.15;16.10;;;;;;;;;;5069904;28;20417;-67
2023/01/20 10:49:20;;;;;;;40.67;16.88;;;;;;;;;;5070037;28;20051;-67
2023/01/20 10:51:45;;;;;;;43.22;17.75;;;;;;;;;;5068746;28;20049;-67
2023/01/20 10:54:15;;;;;;;40.05;17.63;;;;;;;;;;5060937;28;20047;-67
2023/01/20 10:56:43;;;;;;;44.72;16.42;;;;;;;;;;5059584;28;20087;-67
2023/01/20 10:59:17;;;;;;;42.20;15.95;;;;;;;;;;5069809;28;20067;-67
2023/01/20 11:01:47;;;;;;;42.72;17.20;;;;;;;;;;5071611;28;20119;-67
2023/01/20 11:04:18;;;;;;;45.33;16.98;;;;;;;;;;5069268;28;20060;-67
2023/01/20 11:06:44;;;;;;;45.35;18.08;;;;;;;;;;5069392;28;20064;-67
2023/01/20 11:09:17;;;;;;;38.05;15.52;;;;;;;;;;5068918;28;20048;-67
2023/01/20 11:11:43;;;;;;;37.17;14.93;;;;;;;;;;5069635;28;20036;-67
2023/01/20 11:14:09;;;;;;;40.63;17.20;;;;;;;;;;5072165;28;20559;-67
2023/01/20 11:16:35;;;;;;;42.83;17.88;;;;;;;;;;5064040;28;20033;-67
2023/01/20 11:19:03;;;;;;;41.92;17.73;;;;;;;;;;5068265;28;20068;-67
2023/01/20 11:21:30;;;;;;;39.33;16.50;;;;;;;;;;5069291;28;20044;-66
2023/01/20 11:23:57;;;;;;;46.17;18.30;;;;;;;;;;5066484;28;20233;-67
2023/01/20 11:26:25;;;;;;;47.13;19.20;;;;;;;;;;5065224;28;20113;-67
2023/01/20 11:28:53;;;;;;;40.08;17.15;;;;;;;;;;5067668;28;20127;-67
2023/01/20 11:31:19;;;;;;;51.53;18.63;;;;;;;;;;5066151;28;20509;-66
2023/01/20 11:33:56;;;;;;;38.33;16.38;;;;;;;;;;5063020;28;20132;-67
2023/01/20 11:36:26;;;;;;;42.03;16.40;;;;;;;;;;5070536;28;20120;-65
2023/01/20 11:38:53;;;;;;;43.90;17.73;;;;;;;;;;5066121;28;20049;-67
2023/01/20 11:41:29;;;;;;;46.10;19.05;;;;;;;;;;5071180;28;20033;-67
2023/01/20 11:43:57;;;;;;;44.72;17.75;;;;;;;;;;5069146;28;20056;-67
2023/01/20 11:46:27;;;;;;;43.65;17.00;;;;;;;;;;5067967;28;20502;-67
2023/01/20 11:49:05;;;;;;;49.50;18.70;;;;;;;;;;5068610;28;20080;-67
2023/01/20 11:51:31;;;;;;;48.38;17.85;;;;;;;;;;5065525;28;20408;-67
2023/01/20 11:54:08;;;;;;;42.92;17.33;;;;;;;;;;5067467;28;20041;-67
2023/01/20 11:56:41;;;;;;;40.63;16.42;;;;;;;;;;5068590;28;20040;-67
2023/01/20 11:59:17;;;;;;;45.20;17.27;;;;;;;;;;5069724;28;20052;-66
2023/01/20 12:02:22;;;;;;;40.55;18.52;;;;;;;;;;5074291;28;20444;-66
2023/01/20 12:04:49;;;;;;;41.15;18.17;;;;;;;;;;4998687;28;20085;-67
2023/01/20 12:07:19;;;;;;;41.90;16.48;;;;;;;;;;4998242;28;20060;-66
2023/01/20 12:09:48;;;;;;;42.17;16.85;;;;;;;;;;5035496;28;20044;-67
2023/01/20 12:12:27;;;;;;;48.13;18.33;;;;;;;;;;5071144;28;20047;-67
2023/01/20 12:15:14;;;;;;;44.75;17.48;;;;;;;;;;5067706;28;20570;-66
2023/01/20 12:17:59;;;;;;;48.97;17.88;;;;;;;;;;5065236;28;20086;-67
2023/01/20 12:20:25;;;;;;;40.20;16.45;;;;;;;;;;5067294;28;20055;-67
2023/01/20 12:23:10;;;;;;;44.03;18.13;;;;;;;;;;5069348;28;20502;-66
2023/01/20 12:25:42;;;;;;;44.22;17.65;;;;;;;;;;5064184;28;20050;-66
2023/01/20 12:28:18;;;;;;;41.35;18.17;;;;;;;;;;5065855;28;20040;-66
2023/01/20 12:30:44;;;;;;;43.63;19.05;;;;;;;;;;5070345;28;20047;-66
2023/01/20 12:33:20;;;;;;;44.22;17.27;;;;;;;;;;5069761;28;20394;-66
2023/01/20 12:35:56;;;;;;;40.17;17.05;;;;;;;;;;5069081;28;20039;-66
2023/01/20 12:38:22;;;;;;;37.60;15.85;;;;;;;;;;5068090;28;20079;-66
2023/01/20 12:40:48;;;;;;;48.95;18.42;;;;;;;;;;5070402;28;20041;-66
2023/01/20 12:43:14;;;;;;;37.47;17.65;;;;;;;;;;5069687;28;20048;-66
2023/01/20 12:45:59;;;;;;;34.20;15.10;;;;;;;;;;5066885;28;20370;-66
2023/01/20 12:48:43;;;;;;;42.47;16.25;;;;;;;;;;5070743;28;20565;-66
2023/01/20 12:51:35;;;;;;;36.17;14.75;;;;;;;;;;5068943;28;20037;-67
2023/01/20 12:54:07;;;;;;;38.00;16.45;;;;;;;;;;5067804;28;20131;-67
2023/01/20 12:56:44;;;;;;;41.15;17.08;;;;;;;;;;5072169;28;20090;-66
2023/01/20 12:59:45;;;;;;;43.30;17.40;;;;;;;;;;5063465;28;20080;-66
2023/01/20 13:02:36;;;;;;;33.22;13.70;;;;;;;;;;4990465;28;20041;-66
2023/01/20 13:05:37;;;;;;;40.30;17.65;;;;;;;;;;5069736;28;20045;-66
2023/01/20 13:08:03;;;;;;;41.47;17.75;;;;;;;;;;5010094;28;20045;-66
2023/01/20 13:10:38;;;;;;;40.78;18.20;;;;;;;;;;5055860;28;20082;-67
2023/01/20 13:13:17;;;;;;;38.00;16.38;;;;;;;;;;5069918;28;20044;-66
2023/01/20 13:15:57;;;;;;;43.50;17.25;;;;;;;;;;5072641;28;20037;-66
2023/01/20 13:18:35;;;;;;;40.80;17.75;;;;;;;;;;5069621;28;20032;-66
2023/01/20 13:21:01;;;;;;;38.03;16.98;;;;;;;;;;5070814;28;20047;-66
2023/01/20 13:23:35;;;;;;;41.10;17.33;;;;;;;;;;5066757;28;20044;-66
2023/01/20 13:26:01;;;;;;;42.85;19.00;;;;;;;;;;5070477;28;20037;-66
2023/01/20 13:28:28;;;;;;;45.42;20.35;;;;;;;;;;5072747;28;20044;-66
2023/01/20 13:30:56;;;;;;;45.13;20.52;;;;;;;;;;5073943;28;20044;-66
2023/01/20 13:33:36;;;;;;;49.13;20.83;;;;;;;;;;5068878;28;20044;-66
2023/01/20 13:36:13;;;;;;;47.83;21.45;;;;;;;;;;5072361;28;20071;-67
2023/01/20 13:38:39;;;;;;;47.83;20.52;;;;;;;;;;5070888;28;20037;-66
2023/01/20 13:41:06;;;;;;;50.95;21.60;;;;;;;;;;5070942;28;20464;-66
2023/01/20 13:43:31;;;;;;;48.67;21.42;;;;;;;;;;5067923;28;20036;-66
2023/01/20 13:46:18;;;;;;;45.80;20.13;;;;;;;;;;5072062;28;20501;-66
2023/01/20 13:49:04;;;;;;;48.42;22.23;;;;;;;;;;5068003;28;20513;-66
2023/01/20 13:51:37;;;;;;;51.00;21.75;;;;;;;;;;5064362;28;20040;-66
2023/01/20 13:54:21;;;;;;;50.40;21.40;;;;;;;;;;5066407;28;20066;-65
2023/01/20 13:56:47;;;;;;;50.53;21.77;;;;;;;;;;5070122;28;20029;-66
2023/01/20 13:59:13;;;;;;;54.58;23.42;;;;;;;;;;5070411;28;20060;-66
2023/01/20 14:01:39;;;;;;;51.63;21.45;;;;;;;;;;5069206;28;20455;-66
2023/01/20 14:04:07;;;;;;;48.33;20.67;;;;;;;;;;5068837;28;20046;-66
2023/01/20 14:06:34;;;;;;;46.60;21.27;;;;;;;;;;5071369;28;20486;-66
2023/01/20 14:09:01;;;;;;;49.58;20.42;;;;;;;;;;5062923;28;20111;-66
2023/01/20 14:11:28;;;;;;;45.67;21.20;;;;;;;;;;5070732;28;20051;-66
2023/01/20 14:13:58;;;;;;;46.95;20.08;;;;;;;;;;5069697;28;20298;-66
2023/01/20 14:16:28;;;;;;;46.20;20.75;;;;;;;;;;5071610;28;20044;-66
2023/01/20 14:18:56;;;;;;;54.10;20.63;;;;;;;;;;5071922;28;20048;-66
2023/01/20 14:21:29;;;;;;;47.53;20.33;;;;;;;;;;5070075;28;20036;-66
2023/01/20 14:23:55;;;;;;;47.03;19.67;;;;;;;;;;5068390;28;20502;-67
2023/01/20 14:26:26;;;;;;;44.88;19.27;;;;;;;;;;5069536;28;20032;-66
2023/01/20 14:28:53;;;;;;;45.97;19.67;;;;;;;;;;5070717;28;20036;-66
2023/01/20 14:31:21;;;;;;;48.75;20.05;;;;;;;;;;5069810;28;20101;-66
2023/01/20 14:33:47;;;;;;;43.20;19.90;;;;;;;;;;5071287;28;20040;-66
2023/01/20 14:36:17;;;;;;;47.90;20.27;;;;;;;;;;5069561;28;20513;-66
2023/01/20 14:38:44;;;;;;;47.47;19.35;;;;;;;;;;5066354;28;20120;-66
2023/01/20 14:41:36;;;;;;;41.15;18.77;;;;;;;;;;5070256;28;20513;-66
2023/01/20 14:44:02;;;;;;;44.75;19.15;;;;;;;;;;5046669;28;20044;-66
2023/01/20 14:46:30;;;;;;;42.70;18.45;;;;;;;;;;5066841;28;20032;-66